createdAt,value
2023-01-26T00:00:29.284Z,43.80
2023-01-26T00:01:29.304Z,41.30
2023-01-26T00:02:29.394Z,41.30
2023-01-26T00:03:29.301Z,43.50
2023-01-26T00:04:29.233Z,39.60
2023-01-26T00:05:29.255Z,39.60
2023-01-26T00:06:29.223Z,40.80
2023-01-26T00:07:29.216Z,41.30
2023-01-26T00:08:29.210Z,42.00
2023-01-26T00:09:29.209Z,42.30
2023-01-26T00:10:29.178Z,42.10
2023-01-26T00:11:29.168Z,42.60
2023-01-26T00:12:29.164Z,43.40
2023-01-26T00:13:29.146Z,41.40
2023-01-26T00:14:29.161Z,43.00
2023-01-26T00:15:29.130Z,43.50
2023-01-26T00:16:29.144Z,43.20
2023-01-26T00:17:29.099Z,43.60
2023-01-26T00:18:29.105Z,42.80
2023-01-26T00:19:29.114Z,43.50
2023-01-26T00:20:29.075Z,41.90
2023-01-26T00:21:29.064Z,42.20
2023-01-26T00:22:29.055Z,41.70
2023-01-26T00:23:29.037Z,43.50
2023-01-26T00:24:29.036Z,43.80
2023-01-26T00:25:29.044Z,35.60
2023-01-26T00:26:29.002Z,38.00
2023-01-26T00:27:29.032Z,41.60
2023-01-26T00:28:29.010Z,43.20
2023-01-26T00:29:29.007Z,41.30
2023-01-26T00:30:28.984Z,42.10
2023-01-26T00:31:28.975Z,43.70
2023-01-26T00:32:28.951Z,43.80
2023-01-26T00:33:28.941Z,42.90
2023-01-26T00:34:28.917Z,42.20
2023-01-26T00:35:28.927Z,42.60
2023-01-26T00:36:28.897Z,42.50
2023-01-26T00:37:28.936Z,42.00
2023-01-26T00:38:28.896Z,41.00
2023-01-26T00:39:28.858Z,39.20
2023-01-26T00:40:28.861Z,39.20
2023-01-26T00:41:28.861Z,38.20
2023-01-26T00:42:28.852Z,37.70
2023-01-26T00:43:28.863Z,39.10
2023-01-26T00:44:28.824Z,38.10
2023-01-26T00:45:28.797Z,38.70
2023-01-26T00:46:28.878Z,40.60
2023-01-26T00:47:28.785Z,37.60
2023-01-26T00:48:28.803Z,36.40
2023-01-26T00:49:28.765Z,37.70
2023-01-26T00:50:28.778Z,38.10
2023-01-26T00:51:28.729Z,38.90
2023-01-26T00:52:28.793Z,38.60
2023-01-26T00:53:28.727Z,35.70
2023-01-26T00:54:28.705Z,38.90
2023-01-26T00:55:28.679Z,39.50
2023-01-26T00:56:28.680Z,38.40
2023-01-26T00:57:28.669Z,38.40
2023-01-26T00:58:28.680Z,38.50
2023-01-26T00:59:28.645Z,39.90
2023-01-26T01:00:28.652Z,40.30
2023-01-26T01:01:28.722Z,39.30
2023-01-26T01:02:28.621Z,39.30
2023-01-26T01:03:28.613Z,40.10
2023-01-26T01:04:28.598Z,41.60
2023-01-26T01:05:28.590Z,40.50
2023-01-26T01:06:28.585Z,39.60
2023-01-26T01:07:28.605Z,41.40
2023-01-26T01:08:28.541Z,40.10
2023-01-26T01:09:28.534Z,40.20
2023-01-26T01:10:28.554Z,41.40
2023-01-26T01:11:28.534Z,40.50
2023-01-26T01:12:28.507Z,40.20
2023-01-26T01:13:28.529Z,40.50
2023-01-26T01:14:28.483Z,41.10
2023-01-26T01:15:28.465Z,39.80
2023-01-26T01:16:28.506Z,37.50
2023-01-26T01:17:28.449Z,38.70
2023-01-26T01:18:28.443Z,39.20
2023-01-26T01:19:28.443Z,39.10
2023-01-26T01:20:28.425Z,39.30
2023-01-26T01:21:28.402Z,38.80
2023-01-26T01:22:28.404Z,39.00
2023-01-26T01:23:28.392Z,38.90
2023-01-26T01:24:28.413Z,38.30
2023-01-26T01:25:28.401Z,36.90
2023-01-26T01:26:29.075Z,39.50
2023-01-26T01:27:28.338Z,37.50
2023-01-26T01:28:28.337Z,38.30
2023-01-26T01:29:28.325Z,38.30
2023-01-26T01:30:28.325Z,37.60
2023-01-26T01:31:28.367Z,39.10
2023-01-26T01:32:28.317Z,37.80
2023-01-26T01:33:28.276Z,38.60
2023-01-26T01:34:28.256Z,39.80
2023-01-26T01:35:28.276Z,39.80
2023-01-26T01:36:28.245Z,39.80
2023-01-26T01:37:28.244Z,39.90
2023-01-26T01:38:28.223Z,37.40
2023-01-26T01:39:28.225Z,38.50
2023-01-26T01:40:28.203Z,40.10
2023-01-26T01:41:28.209Z,38.80
2023-01-26T01:42:28.192Z,39.10
2023-01-26T01:43:28.166Z,38.50
2023-01-26T01:44:28.178Z,37.70
2023-01-26T01:45:28.166Z,36.60
2023-01-26T01:46:28.199Z,32.80
2023-01-26T01:47:28.117Z,33.40
2023-01-26T01:48:28.119Z,35.40
2023-01-26T01:49:28.103Z,36.40
2023-01-26T01:50:28.128Z,36.40
2023-01-26T01:51:28.079Z,37.50
2023-01-26T01:52:28.087Z,37.00
2023-01-26T01:53:28.076Z,36.50
2023-01-26T01:54:28.075Z,35.40
2023-01-26T01:55:28.055Z,35.30
2023-01-26T01:56:28.045Z,37.00
2023-01-26T01:57:28.031Z,38.50
2023-01-26T01:58:28.009Z,36.70
2023-01-26T01:59:28.013Z,35.10
2023-01-26T02:00:28.057Z,34.80
2023-01-26T02:01:28.000Z,35.20
2023-01-26T02:02:27.968Z,35.00
2023-01-26T02:03:28.933Z,35.30
2023-01-26T02:04:27.952Z,34.50
2023-01-26T02:05:27.931Z,36.70
2023-01-26T02:06:28.138Z,35.20
2023-01-26T02:07:27.912Z,35.90
2023-01-26T02:08:27.909Z,35.70
2023-01-26T02:09:27.894Z,34.00
2023-01-26T02:10:27.913Z,35.30
2023-01-26T02:11:27.892Z,36.70
2023-01-26T02:12:27.851Z,35.40
2023-01-26T02:13:28.029Z,35.70
2023-01-26T02:14:27.846Z,33.70
2023-01-26T02:15:27.853Z,35.30
2023-01-26T02:16:27.899Z,36.90
2023-01-26T02:17:27.808Z,33.90
2023-01-26T02:18:27.791Z,35.20
2023-01-26T02:19:27.793Z,36.00
2023-01-26T02:20:27.763Z,36.50
2023-01-26T02:21:28.710Z,33.80
2023-01-26T02:22:27.776Z,36.10
2023-01-26T02:23:27.751Z,34.40
2023-01-26T02:24:27.734Z,34.20
2023-01-26T02:25:27.748Z,34.20
2023-01-26T02:26:27.753Z,35.20
2023-01-26T02:27:27.702Z,36.10
2023-01-26T02:28:27.692Z,36.60
2023-01-26T02:29:27.684Z,35.10
2023-01-26T02:30:27.654Z,34.50
2023-01-26T02:31:27.739Z,34.00
2023-01-26T02:32:27.666Z,36.40
2023-01-26T02:33:27.642Z,34.70
2023-01-26T02:34:27.637Z,35.00
2023-01-26T02:35:27.624Z,36.30
2023-01-26T02:36:27.623Z,35.00
2023-01-26T02:37:27.653Z,36.70
2023-01-26T02:38:27.598Z,34.70
2023-01-26T02:39:27.567Z,35.50
2023-01-26T02:40:27.555Z,35.10
2023-01-26T02:41:28.519Z,36.50
2023-01-26T02:42:27.564Z,37.40
2023-01-26T02:43:27.539Z,35.30
2023-01-26T02:44:27.518Z,35.10
2023-01-26T02:45:27.536Z,36.60
2023-01-26T02:46:27.515Z,37.60
2023-01-26T02:47:27.504Z,35.60
2023-01-26T02:48:27.479Z,36.80
2023-01-26T02:49:27.466Z,38.00
2023-01-26T02:50:27.449Z,37.50
2023-01-26T02:51:27.485Z,35.00
2023-01-26T02:52:27.449Z,37.50
2023-01-26T02:53:27.432Z,37.80
2023-01-26T02:54:27.406Z,35.70
2023-01-26T02:55:27.440Z,35.50
2023-01-26T02:56:27.400Z,37.70
2023-01-26T02:57:27.387Z,35.60
2023-01-26T02:58:27.375Z,36.00
2023-01-26T02:59:27.366Z,34.90
2023-01-26T03:00:27.361Z,36.40
2023-01-26T03:01:27.347Z,34.80
2023-01-26T03:02:27.317Z,34.30
2023-01-26T03:03:27.315Z,34.50
2023-01-26T03:04:27.324Z,33.30
2023-01-26T03:05:27.311Z,33.40
2023-01-26T03:06:27.280Z,35.60
2023-01-26T03:07:27.487Z,33.90
2023-01-26T03:08:27.262Z,35.50
2023-01-26T03:09:27.252Z,34.10
2023-01-26T03:10:27.262Z,33.40
2023-01-26T03:11:27.250Z,32.90
2023-01-26T03:12:27.217Z,34.80
2023-01-26T03:13:27.223Z,34.20
2023-01-26T03:14:27.201Z,34.30
2023-01-26T03:15:27.179Z,34.40
2023-01-26T03:16:27.197Z,34.10
2023-01-26T03:17:27.172Z,35.10
2023-01-26T03:18:27.195Z,31.50
2023-01-26T03:19:27.147Z,32.70
2023-01-26T03:20:27.134Z,32.60
2023-01-26T03:21:27.151Z,33.80
2023-01-26T03:22:27.120Z,34.50
2023-01-26T03:23:27.089Z,34.50
2023-01-26T03:24:27.122Z,35.20
2023-01-26T03:25:27.079Z,34.20
2023-01-26T03:26:27.083Z,33.60
2023-01-26T03:27:27.061Z,33.40
2023-01-26T03:28:27.061Z,34.60
2023-01-26T03:29:27.038Z,33.80
2023-01-26T03:30:27.046Z,35.40
2023-01-26T03:31:27.073Z,31.10
2023-01-26T03:32:26.997Z,31.50
2023-01-26T03:33:27.001Z,31.70
2023-01-26T03:34:26.972Z,33.90
2023-01-26T03:35:26.972Z,34.20
2023-01-26T03:36:26.956Z,33.30
2023-01-26T03:37:26.975Z,32.90
2023-01-26T03:38:26.942Z,36.40
2023-01-26T03:39:26.947Z,35.10
2023-01-26T03:40:26.951Z,33.10
2023-01-26T03:41:26.903Z,32.70
2023-01-26T03:42:26.898Z,33.70
2023-01-26T03:43:26.887Z,33.50
2023-01-26T03:44:26.863Z,32.30
2023-01-26T03:45:26.887Z,34.30
2023-01-26T03:46:26.904Z,33.60
2023-01-26T03:47:26.845Z,35.00
2023-01-26T03:48:26.875Z,31.00
2023-01-26T03:49:26.824Z,33.30
2023-01-26T03:50:26.819Z,33.40
2023-01-26T03:51:26.797Z,33.60
2023-01-26T03:52:26.802Z,35.60
2023-01-26T03:53:26.794Z,32.50
2023-01-26T03:54:26.779Z,34.90
2023-01-26T03:55:26.755Z,33.60
2023-01-26T03:56:26.733Z,34.70
2023-01-26T03:57:26.764Z,34.00
2023-01-26T03:58:26.715Z,35.20
2023-01-26T03:59:26.727Z,35.20
2023-01-26T04:00:26.740Z,35.00
2023-01-26T04:01:26.695Z,35.10
2023-01-26T04:02:26.671Z,33.60
2023-01-26T04:03:26.701Z,33.10
2023-01-26T04:04:26.656Z,35.10
2023-01-26T04:05:26.644Z,34.00
2023-01-26T04:06:26.629Z,33.00
2023-01-26T04:07:26.635Z,33.80
2023-01-26T04:08:27.595Z,33.60
2023-01-26T04:09:26.609Z,33.10
2023-01-26T04:10:26.596Z,34.20
2023-01-26T04:11:26.582Z,36.20
2023-01-26T04:12:26.576Z,35.60
2023-01-26T04:13:26.566Z,36.60
2023-01-26T04:14:26.567Z,36.70
2023-01-26T04:15:26.540Z,35.30
2023-01-26T04:16:26.665Z,35.40
2023-01-26T04:17:26.524Z,35.70
2023-01-26T04:18:26.521Z,34.50
2023-01-26T04:19:26.516Z,33.60
2023-01-26T04:20:26.517Z,34.40
2023-01-26T04:21:26.469Z,36.00
2023-01-26T04:22:26.488Z,35.30
2023-01-26T04:23:26.488Z,35.90
2023-01-26T04:24:26.454Z,36.20
2023-01-26T04:25:26.472Z,36.70
2023-01-26T04:26:26.420Z,37.00
2023-01-26T04:27:26.407Z,35.60
2023-01-26T04:28:26.389Z,37.30
2023-01-26T04:29:26.417Z,35.90
2023-01-26T04:30:26.381Z,35.00
2023-01-26T04:31:26.434Z,34.20
2023-01-26T04:32:26.388Z,36.80
2023-01-26T04:33:26.875Z,35.50
2023-01-26T04:34:26.382Z,36.70
2023-01-26T04:35:26.327Z,34.90
2023-01-26T04:36:26.344Z,36.30
2023-01-26T04:37:26.296Z,35.10
2023-01-26T04:38:26.286Z,37.20
2023-01-26T04:39:26.312Z,36.80
2023-01-26T04:40:26.255Z,34.90
2023-01-26T04:41:26.305Z,35.70
2023-01-26T04:42:26.251Z,34.60
2023-01-26T04:43:26.702Z,33.00
2023-01-26T04:44:26.223Z,33.20
2023-01-26T04:45:26.225Z,34.80
2023-01-26T04:46:26.191Z,35.40
2023-01-26T04:47:29.397Z,35.40
2023-01-26T04:48:26.232Z,34.50
2023-01-26T04:49:26.152Z,34.60
2023-01-26T04:50:26.983Z,34.90
2023-01-26T04:51:26.156Z,35.80
2023-01-26T04:52:27.577Z,35.80
2023-01-26T04:53:26.819Z,35.00
2023-01-26T04:54:26.123Z,35.70
2023-01-26T04:55:26.619Z,37.00
2023-01-26T04:56:26.108Z,35.50
2023-01-26T04:57:26.348Z,35.50
2023-01-26T04:58:26.211Z,36.50
2023-01-26T04:59:26.165Z,35.90
2023-01-26T05:00:26.070Z,36.10
2023-01-26T05:01:26.155Z,35.70
2023-01-26T05:02:26.051Z,34.70
2023-01-26T05:03:26.017Z,34.50
2023-01-26T05:04:27.453Z,35.40
2023-01-26T05:05:25.994Z,36.30
2023-01-26T05:06:26.263Z,35.40
2023-01-26T05:07:25.976Z,36.90
2023-01-26T05:08:25.978Z,33.80
2023-01-26T05:09:25.961Z,35.00
2023-01-26T05:10:25.964Z,35.00
2023-01-26T05:11:25.914Z,35.00
2023-01-26T05:12:25.945Z,34.70
2023-01-26T05:13:25.907Z,35.80
2023-01-26T05:14:25.904Z,36.70
2023-01-26T05:15:25.887Z,35.90
2023-01-26T05:16:25.960Z,37.10
2023-01-26T05:17:25.869Z,34.70
2023-01-26T05:18:25.866Z,32.50
2023-01-26T05:19:25.836Z,35.20
2023-01-26T05:20:26.624Z,36.50
2023-01-26T05:21:25.814Z,33.90
2023-01-26T05:22:25.946Z,35.10
2023-01-26T05:23:25.804Z,33.80
2023-01-26T05:24:25.784Z,36.60
2023-01-26T05:25:26.607Z,36.30
2023-01-26T05:26:25.917Z,34.20
2023-01-26T05:27:26.710Z,34.50
2023-01-26T05:28:25.957Z,34.80
2023-01-26T05:29:25.920Z,32.90
2023-01-26T05:30:25.996Z,34.00
2023-01-26T05:31:26.564Z,33.10
2023-01-26T05:32:25.690Z,31.90
2023-01-26T05:33:25.728Z,33.10
2023-01-26T05:34:25.680Z,35.20
2023-01-26T05:35:25.929Z,33.60
2023-01-26T05:36:26.018Z,34.80
2023-01-26T05:37:25.653Z,33.20
2023-01-26T05:38:25.733Z,32.40
2023-01-26T05:39:25.810Z,32.40
2023-01-26T05:40:25.609Z,33.20
2023-01-26T05:41:25.605Z,33.30
2023-01-26T05:42:26.554Z,33.70
2023-01-26T05:43:25.577Z,32.50
2023-01-26T05:44:25.608Z,32.80
2023-01-26T05:45:25.723Z,33.60
2023-01-26T05:46:25.581Z,32.60
2023-01-26T05:47:25.538Z,33.60
2023-01-26T05:48:25.534Z,33.30
2023-01-26T05:49:25.513Z,31.90
2023-01-26T05:50:25.501Z,33.00
2023-01-26T05:51:25.517Z,33.90
2023-01-26T05:52:25.501Z,34.80
2023-01-26T05:53:25.474Z,34.70
2023-01-26T05:54:25.473Z,33.10
2023-01-26T05:55:25.793Z,33.80
2023-01-26T05:56:25.438Z,29.60
2023-01-26T05:57:25.448Z,31.10
2023-01-26T05:58:25.713Z,30.80
2023-01-26T05:59:26.274Z,30.50
2023-01-26T06:00:26.341Z,30.50
2023-01-26T06:01:25.412Z,31.10
2023-01-26T06:02:25.392Z,32.40
2023-01-26T06:03:26.392Z,27.60
2023-01-26T06:04:25.460Z,29.50
2023-01-26T06:05:25.377Z,30.20
2023-01-26T06:06:25.334Z,31.00
2023-01-26T06:07:25.331Z,30.40
2023-01-26T06:08:25.325Z,30.20
2023-01-26T06:09:27.381Z,30.20
2023-01-26T06:10:25.405Z,28.60
2023-01-26T06:11:25.306Z,28.50
2023-01-26T06:12:25.288Z,29.70
2023-01-26T06:13:25.407Z,28.50
2023-01-26T06:14:26.702Z,29.20
2023-01-26T06:15:26.699Z,29.40
2023-01-26T06:16:25.349Z,29.60
2023-01-26T06:17:26.706Z,29.50
2023-01-26T06:18:25.218Z,30.10
2023-01-26T06:19:25.232Z,28.00
2023-01-26T06:20:26.635Z,28.40
2023-01-26T06:21:26.627Z,27.90
2023-01-26T06:22:26.017Z,30.00
2023-01-26T06:23:25.303Z,27.30
2023-01-26T06:24:26.581Z,28.60
2023-01-26T06:25:25.249Z,26.90
2023-01-26T06:26:26.084Z,27.70
2023-01-26T06:27:25.171Z,27.30
2023-01-26T06:28:25.133Z,26.10
2023-01-26T06:29:25.086Z,26.60
2023-01-26T06:30:25.094Z,28.20
2023-01-26T06:31:25.491Z,27.00
2023-01-26T06:32:25.076Z,27.60
2023-01-26T06:33:25.039Z,27.70
2023-01-26T06:34:25.116Z,27.90
2023-01-26T06:35:25.030Z,28.30
2023-01-26T06:36:25.005Z,27.00
2023-01-26T06:37:25.347Z,26.50
2023-01-26T06:38:24.993Z,26.00
2023-01-26T06:39:24.971Z,26.40
2023-01-26T06:40:24.986Z,28.00
2023-01-26T06:41:24.978Z,29.00
2023-01-26T06:42:25.392Z,28.00
2023-01-26T06:43:24.940Z,28.50
2023-01-26T06:44:24.929Z,27.40
2023-01-26T06:45:24.918Z,26.10
2023-01-26T06:46:24.963Z,26.90
2023-01-26T06:47:24.903Z,27.70
2023-01-26T06:48:24.930Z,28.00
2023-01-26T06:49:24.890Z,27.80
2023-01-26T06:50:24.885Z,26.80
2023-01-26T06:51:24.843Z,26.90
2023-01-26T06:52:24.876Z,25.20
2023-01-26T06:53:24.833Z,27.40
2023-01-26T06:54:24.842Z,25.70
2023-01-26T06:55:24.808Z,25.80
2023-01-26T06:56:24.812Z,26.00
2023-01-26T06:57:24.799Z,25.10
2023-01-26T06:58:25.278Z,25.40
2023-01-26T06:59:24.786Z,25.00
2023-01-26T07:00:24.759Z,26.10
2023-01-26T07:01:24.861Z,26.60
2023-01-26T07:02:24.775Z,25.70
2023-01-26T07:03:24.737Z,25.80
2023-01-26T07:04:24.710Z,25.40
2023-01-26T07:05:24.718Z,26.90
2023-01-26T07:06:24.690Z,26.60
2023-01-26T07:07:24.673Z,26.40
2023-01-26T07:08:24.695Z,26.90
2023-01-26T07:09:24.650Z,28.30
2023-01-26T07:10:24.696Z,26.60
2023-01-26T07:11:24.630Z,25.90
2023-01-26T07:12:24.621Z,26.90
2023-01-26T07:13:24.613Z,25.50
2023-01-26T07:14:24.638Z,25.80
2023-01-26T07:15:24.588Z,26.70
2023-01-26T07:16:24.618Z,26.10
2023-01-26T07:17:24.566Z,26.30
2023-01-26T07:18:24.560Z,26.80
2023-01-26T07:19:24.573Z,26.30
2023-01-26T07:20:24.568Z,24.90
2023-01-26T07:21:24.553Z,27.20
2023-01-26T07:22:24.520Z,26.20
2023-01-26T07:23:24.516Z,25.20
2023-01-26T07:24:24.600Z,24.70
2023-01-26T07:25:24.470Z,26.30
2023-01-26T07:26:24.519Z,26.30
2023-01-26T07:27:24.513Z,25.00
2023-01-26T07:28:24.471Z,26.00
2023-01-26T07:29:24.470Z,27.20
2023-01-26T07:30:24.441Z,26.90
2023-01-26T07:31:24.541Z,26.00
2023-01-26T07:32:24.412Z,26.60
2023-01-26T07:33:24.407Z,26.00
2023-01-26T07:34:24.408Z,25.90
2023-01-26T07:35:24.383Z,27.00
2023-01-26T07:36:24.354Z,25.80
2023-01-26T07:37:24.349Z,26.80
2023-01-26T07:38:24.344Z,25.40
2023-01-26T07:39:24.373Z,27.00
2023-01-26T07:40:24.328Z,26.20
2023-01-26T07:41:24.318Z,26.10
2023-01-26T07:42:24.294Z,26.60
2023-01-26T07:43:24.326Z,26.00
2023-01-26T07:44:24.275Z,24.30
2023-01-26T07:45:24.338Z,25.80
2023-01-26T07:46:24.277Z,24.80
2023-01-26T07:47:24.239Z,25.20
2023-01-26T07:48:24.252Z,25.10
2023-01-26T07:49:24.230Z,24.40
2023-01-26T07:50:24.264Z,25.30
2023-01-26T07:51:24.194Z,23.10
2023-01-26T07:52:24.186Z,23.00
2023-01-26T07:53:24.198Z,22.90
2023-01-26T07:54:24.180Z,23.70
2023-01-26T07:55:24.346Z,23.60
2023-01-26T07:56:24.134Z,23.30
2023-01-26T07:57:24.211Z,24.00
2023-01-26T07:58:24.120Z,24.80
2023-01-26T07:59:24.121Z,23.50
2023-01-26T08:00:24.102Z,23.20
2023-01-26T08:01:24.153Z,22.70
2023-01-26T08:02:24.085Z,23.60
2023-01-26T08:03:24.084Z,23.70
2023-01-26T08:04:24.093Z,23.40
2023-01-26T08:05:24.080Z,23.50
2023-01-26T08:06:24.044Z,24.90
2023-01-26T08:07:24.054Z,22.80
2023-01-26T08:08:24.030Z,23.30
2023-01-26T08:09:24.001Z,31.90
2023-01-26T08:10:23.980Z,40.60
2023-01-26T08:11:23.990Z,48.20
2023-01-26T08:12:24.014Z,36.50
2023-01-26T08:13:34.659Z,26.80
2023-01-26T08:14:24.966Z,28.90
2023-01-26T08:15:24.092Z,29.00
2023-01-26T08:16:23.970Z,29.90
2023-01-26T08:17:23.912Z,27.60
2023-01-26T08:18:24.156Z,26.60
2023-01-26T08:19:23.903Z,28.10
2023-01-26T08:20:24.187Z,26.60
2023-01-26T08:21:23.885Z,26.10
2023-01-26T08:22:23.882Z,23.60
2023-01-26T08:23:23.846Z,23.30
2023-01-26T08:24:24.055Z,23.10
2023-01-26T08:25:23.823Z,24.90
2023-01-26T08:26:23.878Z,22.90
2023-01-26T08:27:23.813Z,24.70
2023-01-26T08:28:23.825Z,24.00
2023-01-26T08:29:23.777Z,23.00
2023-01-26T08:30:23.828Z,24.90
2023-01-26T08:31:23.823Z,24.30
2023-01-26T08:32:23.752Z,24.40
2023-01-26T08:33:23.749Z,24.90
2023-01-26T08:34:23.753Z,25.70
2023-01-26T08:35:23.715Z,23.10
2023-01-26T08:36:23.816Z,23.90
2023-01-26T08:37:23.726Z,22.60
2023-01-26T08:38:23.753Z,23.70
2023-01-26T08:39:23.870Z,22.90
2023-01-26T08:40:24.067Z,23.00
2023-01-26T08:41:23.743Z,23.90
2023-01-26T08:42:23.986Z,24.50
2023-01-26T08:43:23.640Z,23.30
2023-01-26T08:44:23.634Z,25.80
2023-01-26T08:45:24.604Z,23.50
2023-01-26T08:46:23.609Z,23.50
2023-01-26T08:47:23.647Z,22.30
2023-01-26T08:48:23.583Z,23.70
2023-01-26T08:49:23.585Z,22.10
2023-01-26T08:50:23.556Z,22.50
2023-01-26T08:51:23.556Z,20.60
2023-01-26T08:52:24.497Z,21.80
2023-01-26T08:53:24.446Z,22.60
2023-01-26T08:54:24.982Z,24.10
2023-01-26T08:55:23.522Z,23.90
2023-01-26T08:56:23.497Z,24.10
2023-01-26T08:57:23.503Z,23.50
2023-01-26T08:58:23.480Z,21.70
2023-01-26T08:59:23.502Z,23.60
2023-01-26T09:00:23.469Z,23.20
2023-01-26T09:01:23.495Z,23.50
2023-01-26T09:02:23.515Z,22.80
2023-01-26T09:03:23.412Z,23.50
2023-01-26T09:04:23.424Z,22.40
2023-01-26T09:05:23.427Z,24.30
2023-01-26T09:06:23.375Z,23.40
2023-01-26T09:07:23.376Z,24.50
2023-01-26T09:08:23.367Z,23.30
2023-01-26T09:09:23.350Z,23.10
2023-01-26T09:10:23.396Z,23.50
2023-01-26T09:11:23.328Z,23.50
2023-01-26T09:12:23.360Z,23.30
2023-01-26T09:13:23.318Z,23.90
2023-01-26T09:14:23.297Z,22.90
2023-01-26T09:15:23.336Z,24.20
2023-01-26T09:16:23.348Z,24.30
2023-01-26T09:17:23.260Z,25.30
2023-01-26T09:18:23.260Z,25.40
2023-01-26T09:19:23.245Z,24.50
2023-01-26T09:20:23.339Z,25.70
2023-01-26T09:21:23.219Z,25.60
2023-01-26T09:22:23.239Z,25.70
2023-01-26T09:23:23.207Z,23.80
2023-01-26T09:24:23.249Z,24.80
2023-01-26T09:25:23.188Z,24.60
2023-01-26T09:26:23.165Z,25.20
2023-01-26T09:27:23.204Z,26.70
2023-01-26T09:28:23.379Z,24.80
2023-01-26T09:29:23.151Z,25.10
2023-01-26T09:30:23.252Z,25.40
2023-01-26T09:31:23.246Z,24.20
2023-01-26T09:32:23.139Z,26.00
2023-01-26T09:33:24.055Z,25.40
2023-01-26T09:34:23.141Z,26.40
2023-01-26T09:35:23.070Z,26.00
2023-01-26T09:36:23.059Z,25.70
2023-01-26T09:37:23.072Z,27.00
2023-01-26T09:38:23.054Z,26.60
2023-01-26T09:39:23.031Z,25.60
2023-01-26T09:40:23.388Z,25.60
2023-01-26T09:41:23.032Z,24.40
2023-01-26T09:42:22.992Z,25.90
2023-01-26T09:43:23.016Z,26.10
2023-01-26T09:44:23.062Z,25.10
2023-01-26T09:45:23.029Z,24.60
2023-01-26T09:46:23.969Z,26.80
2023-01-26T09:47:22.934Z,26.00
2023-01-26T09:48:25.290Z,25.30
2023-01-26T09:49:22.921Z,24.20
2023-01-26T09:50:22.953Z,25.00
2023-01-26T09:51:22.923Z,25.40
2023-01-26T09:52:22.897Z,23.70
2023-01-26T09:53:22.888Z,26.00
2023-01-26T09:54:22.885Z,24.80
2023-01-26T09:55:22.913Z,22.20
2023-01-26T09:56:22.844Z,22.80
2023-01-26T09:57:22.919Z,22.30
2023-01-26T09:58:22.826Z,23.20
2023-01-26T09:59:22.810Z,22.70
2023-01-26T10:00:22.816Z,23.30
2023-01-26T10:01:22.913Z,22.70
2023-01-26T10:02:22.851Z,22.00
2023-01-26T10:03:22.768Z,22.70
2023-01-26T10:04:22.758Z,22.00
2023-01-26T10:05:22.778Z,21.80
2023-01-26T10:06:22.755Z,22.10
2023-01-26T10:07:22.727Z,22.00
2023-01-26T10:08:22.711Z,21.20
2023-01-26T10:09:22.706Z,22.10
2023-01-26T10:10:22.720Z,21.30
2023-01-26T10:11:22.667Z,20.40
2023-01-26T10:12:22.678Z,19.40
2023-01-26T10:13:22.690Z,18.10
2023-01-26T10:14:22.660Z,18.20
2023-01-26T10:15:22.665Z,20.30
2023-01-26T10:16:22.638Z,19.00
2023-01-26T10:17:22.628Z,18.60
2023-01-26T10:18:22.604Z,17.70
2023-01-26T10:19:22.596Z,19.30
2023-01-26T10:20:22.662Z,19.30
2023-01-26T10:21:22.561Z,18.80
2023-01-26T10:22:22.549Z,19.10
2023-01-26T10:23:22.558Z,18.80
2023-01-26T10:24:22.603Z,18.60
2023-01-26T10:25:24.434Z,18.30
2023-01-26T10:26:22.553Z,18.20
2023-01-26T10:27:22.521Z,17.90
2023-01-26T10:28:22.512Z,17.80
2023-01-26T10:29:22.493Z,16.50
2023-01-26T10:30:22.537Z,15.60
2023-01-26T10:31:22.572Z,16.60
2023-01-26T10:32:22.454Z,20.70
2023-01-26T10:33:22.438Z,29.70
2023-01-26T10:34:22.451Z,16.10
2023-01-26T10:35:22.420Z,15.00
2023-01-26T10:36:22.417Z,16.10
2023-01-26T10:37:22.517Z,14.70
2023-01-26T10:38:22.381Z,14.60
2023-01-26T10:39:22.361Z,15.60
2023-01-26T10:40:22.436Z,15.10
2023-01-26T10:41:22.363Z,14.70
2023-01-26T10:42:22.360Z,15.50
2023-01-26T10:43:23.314Z,14.10
2023-01-26T10:44:22.352Z,14.10
2023-01-26T10:45:22.353Z,14.00
2023-01-26T10:46:22.315Z,14.00
2023-01-26T10:47:22.316Z,14.50
2023-01-26T10:48:22.276Z,14.50
2023-01-26T10:49:22.293Z,14.40
2023-01-26T10:50:22.256Z,13.90
2023-01-26T10:51:22.241Z,13.90
2023-01-26T10:52:22.284Z,14.10
2023-01-26T10:53:22.219Z,14.10
2023-01-26T10:54:22.223Z,13.50
2023-01-26T10:55:22.214Z,14.60
2023-01-26T10:56:22.181Z,12.90
2023-01-26T10:57:22.215Z,14.60
2023-01-26T10:58:22.183Z,13.10
2023-01-26T10:59:22.679Z,13.20
2023-01-26T11:00:22.205Z,12.90
2023-01-26T11:01:22.153Z,13.40
2023-01-26T11:02:22.168Z,12.10
2023-01-26T11:03:22.123Z,11.30
2023-01-26T11:04:22.103Z,12.30
2023-01-26T11:05:22.105Z,11.10
2023-01-26T11:06:22.138Z,10.50
2023-01-26T11:07:22.064Z,11.20
2023-01-26T11:08:22.060Z,10.60
2023-01-26T11:09:22.047Z,11.50
2023-01-26T11:10:22.063Z,11.40
2023-01-26T11:11:22.049Z,11.80
2023-01-26T11:12:22.081Z,11.30
2023-01-26T11:13:22.034Z,12.70
2023-01-26T11:14:22.001Z,11.60
2023-01-26T11:15:22.187Z,15.70
2023-01-26T11:16:21.979Z,28.40
2023-01-26T11:17:21.971Z,47.10
2023-01-26T11:18:21.981Z,30.60
2023-01-26T11:19:21.962Z,13.80
2023-01-26T11:20:21.925Z,11.80
2023-01-26T11:21:21.926Z,11.90
2023-01-26T11:22:21.902Z,11.30
2023-01-26T11:23:21.907Z,10.50
2023-01-26T11:24:21.954Z,10.20
2023-01-26T11:25:21.892Z,9.80
2023-01-26T11:26:21.900Z,10.00
2023-01-26T11:27:21.874Z,9.30
2023-01-26T11:28:21.839Z,9.60
2023-01-26T11:29:21.858Z,10.10
2023-01-26T11:30:21.863Z,9.50
2023-01-26T11:31:21.835Z,9.80
2023-01-26T11:32:21.804Z,9.50
2023-01-26T11:33:21.783Z,9.20
2023-01-26T11:34:21.778Z,17.20
2023-01-26T11:35:21.768Z,14.80
2023-01-26T11:36:21.830Z,18.00
2023-01-26T11:37:21.815Z,11.50
2023-01-26T11:38:21.766Z,10.10
2023-01-26T11:39:21.743Z,10.30
2023-01-26T11:40:21.731Z,8.90
2023-01-26T11:41:21.689Z,9.00
2023-01-26T11:42:21.694Z,9.80
2023-01-26T11:43:21.703Z,8.40
2023-01-26T11:44:21.734Z,8.60
2023-01-26T11:45:21.755Z,9.10
2023-01-26T11:46:21.667Z,9.30
2023-01-26T11:47:21.654Z,9.60
2023-01-26T11:48:21.663Z,8.90
2023-01-26T11:49:21.626Z,9.80
2023-01-26T11:50:21.635Z,9.90
2023-01-26T11:51:21.617Z,8.70
2023-01-26T11:52:21.562Z,9.70
2023-01-26T11:53:21.624Z,9.10
2023-01-26T11:54:21.566Z,10.40
2023-01-26T11:55:21.551Z,9.90
2023-01-26T11:56:21.533Z,9.60
2023-01-26T11:57:21.558Z,10.10
2023-01-26T11:58:21.522Z,9.10
2023-01-26T11:59:21.503Z,9.80
2023-01-26T12:00:30.141Z,9.40
2023-01-26T12:01:22.514Z,10.20
2023-01-26T12:02:21.503Z,10.00
2023-01-26T12:03:21.509Z,9.70
2023-01-26T12:04:21.435Z,9.10
2023-01-26T12:05:21.439Z,9.90
2023-01-26T12:06:21.427Z,9.20
2023-01-26T12:07:21.464Z,10.00
2023-01-26T12:08:21.418Z,9.80
2023-01-26T12:09:21.411Z,9.60
2023-01-26T12:10:21.390Z,9.50
2023-01-26T12:11:21.387Z,10.10
2023-01-26T12:12:21.388Z,9.40
2023-01-26T12:13:21.344Z,10.00
2023-01-26T12:14:21.384Z,9.10
2023-01-26T12:15:21.353Z,9.60
2023-01-26T12:16:21.325Z,8.80
2023-01-26T12:17:21.311Z,8.90
2023-01-26T12:18:21.300Z,9.10
2023-01-26T12:19:21.300Z,9.70
2023-01-26T12:20:21.496Z,9.30
2023-01-26T12:21:21.266Z,9.90
2023-01-26T12:22:21.293Z,9.70
2023-01-26T12:23:21.243Z,9.50
2023-01-26T12:24:46.774Z,9.80
2023-01-26T12:25:22.221Z,8.60
2023-01-26T12:26:21.197Z,10.00
2023-01-26T12:27:21.202Z,10.00
2023-01-26T12:28:21.237Z,9.50
2023-01-26T12:29:21.183Z,9.50
2023-01-26T12:30:21.225Z,9.30
2023-01-26T12:31:21.236Z,8.80
2023-01-26T12:32:22.608Z,9.10
2023-01-26T12:33:21.148Z,7.90
2023-01-26T12:34:21.147Z,8.10
2023-01-26T12:35:21.104Z,8.20
2023-01-26T12:36:21.104Z,8.50
2023-01-26T12:37:21.091Z,8.00
2023-01-26T12:38:21.081Z,9.40
2023-01-26T12:39:21.089Z,9.10
2023-01-26T12:40:21.073Z,7.80
2023-01-26T12:41:21.044Z,8.30
2023-01-26T12:42:21.059Z,8.00
2023-01-26T12:43:21.022Z,7.70
2023-01-26T12:44:21.051Z,7.80
2023-01-26T12:45:21.008Z,8.10
2023-01-26T12:46:21.013Z,7.60
2023-01-26T12:47:20.995Z,8.00
2023-01-26T12:48:20.961Z,7.70
2023-01-26T12:49:20.971Z,8.20
2023-01-26T12:50:20.973Z,8.10
2023-01-26T12:51:20.932Z,7.40
2023-01-26T12:52:20.933Z,8.60
2023-01-26T12:53:20.942Z,8.00
2023-01-26T12:54:20.915Z,8.30
2023-01-26T12:55:20.946Z,8.20